CheckWX is a tool to help pilots better visualize weather data.  It is not intended as a substitute for an official pre-flight weather briefing.

07:01:39 UTC

KINS TAF
Creech AFB Airport
Indian Springs, Nevada, USA
TAF KINS 190452Z 1905/2011 VRB06KT 9999 FEW150 QNH2993INS BECMG 1914/1915 32009KT 9999 FEW090 QNH2997INS TEMPO 1919/2002 35010G15KT TEMPO 2002/2007 25015G20KT 510009 510906 BECMG 2008/2009 23009KT 9999 FEW110 QNH2984INS TX39/1921Z TN20/1912Z

Jun-19@
05:00 UTC

Jun-19 @ 05:00 UTC

Jun-19@
14:00 UTC

Jun-19 @ 14:00 UTC

TAF KINS 190452Z 1905/2011 VRB06KT 9999 FEW150 QNH2993INS
Wind
  • Variable at 6 KTS
Cloud Levels
  • Few at 15,000' AGL

Jun-19@
14:00 UTC

Jun-19 @ 14:00 UTC

Jun-20@
08:00 UTC

Jun-20 @ 08:00 UTC

BECMG 1914/1915 32009KT 9999 FEW090 QNH2997INS

Becoming

Becoming Conditions expected by Wed, Jun 19, 2019 @ 15:00 UTC

Wind
  • 320° at 9 KTS
Cloud Levels
  • Few at 9,000' AGL

Jun-19@
19:00 UTC

Jun-19 @ 19:00 UTC

Jun-20@
02:00 UTC

Jun-20 @ 02:00 UTC

TEMPO 1919/2002 35010G15KT

Temporary

Temporary Changes expected for less than half the time period

Wind
  • 350° at 10 KTS
  • {Gusting to 15 KTS

Jun-20@
02:00 UTC

Jun-20 @ 02:00 UTC

Jun-20@
07:00 UTC

Jun-20 @ 07:00 UTC

TEMPO 2002/2007 25015G20KT 510009 510906

Temporary

Temporary Changes expected for less than half the time period

Wind
  • 250° at 15 KTS
  • {Gusting to 20 KTS
Turbulence
< Light turbulence expected at 9,000' AGL extending to 15,000' AGL

Jun-20@
08:00 UTC

Jun-20 @ 08:00 UTC

Jun-20@
11:00 UTC

Jun-20 @ 11:00 UTC

BECMG 2008/2009 23009KT 9999 FEW110 QNH2984INS TX39/1921Z TN20/1912Z

Becoming

Becoming Conditions expected by Thu, Jun 20, 2019 @ 09:00 UTC

Wind
  • 230° at 9 KTS
Cloud Levels
  • Few at 11,000' AGL